| time (UTC) | temp F | wind direction | speed MPH | gust MPH | rain 1hr in | rain 24hr in | rain mn in | humidity % | barometer mb |
| 20260506183016 | 61 | 0.0 | 0.0 | 0.04 | 0.27 | 0.27 | 94 | 993.6 | |
| 20260506182016 | 61 | 0.0 | 0.0 | 0.04 | 0.26 | 0.26 | 94 | 993.7 | |
| 20260506181016 | 61 | 0.0 | 0.0 | 0.05 | 0.26 | 0.26 | 94 | 993.7 | |
| 20260506180016 | 61 | 0.0 | 0.0 | 0.06 | 0.25 | 0.25 | 94 | 993.8 | |
| 20260506175016 | 61 | 0.0 | 0.0 | 0.08 | 0.24 | 0.24 | 94 | 993.9 | |
| 20260506174016 | 61 | 0.0 | 0.0 | 0.08 | 0.24 | 0.24 | 93 | 993.8 | |
| 20260506173016 | 61 | 0.0 | 2.0 | 0.07 | 0.23 | 0.23 | 93 | 993.7 | |
| 20260506172016 | 61 | 0.0 | 3.0 | 0.06 | 0.22 | 0.22 | 93 | 993.8 | |
| 20260506171036 | 61 | 0.0 | 0.0 | 0.06 | 0.21 | 0.21 | 93 | 993.9 | |
| 20260506170016 | 61 | 0.0 | 3.0 | 0.04 | 0.19 | 0.19 | 93 | 994.0 | |
| 20260506165016 | 61 | 0.0 | 5.0 | 0.02 | 0.16 | 0.16 | 92 | 994.0 | |
| 20260506164016 | 62 | 0.0 | 3.0 | 0.03 | 0.16 | 0.16 | 92 | 994.0 | |
| 20260506163016 | 62 | 0.0 | 1.0 | 0.06 | 0.16 | 0.16 | 92 | 994.0 | |
| 20260506162016 | 62 | 90 | 1.0 | 11.0 | 0.09 | 0.16 | 0.16 | 92 | 993.8 |
| 20260506161016 | 62 | 68 | 1.0 | 10.0 | 0.09 | 0.15 | 0.15 | 93 | 993.8 |
| 20260506160016 | 62 | 0.0 | 4.0 | 0.09 | 0.15 | 0.15 | 92 | 993.9 | |
| 20260506155016 | 62 | 113 | 1.0 | 4.0 | 0.08 | 0.14 | 0.14 | 92 | 994.3 |
| 20260506154016 | 62 | 0.0 | 3.0 | 0.08 | 0.13 | 0.13 | 91 | 994.7 | |
| 20260506153016 | 62 | 113 | 2.0 | 8.0 | 0.07 | 0.10 | 0.10 | 91 | 995.0 |
| 20260506152035 | 62 | 113 | 3.0 | 14.0 | 0.05 | 0.07 | 0.07 | 90 | 995.0 |
| 20260506151016 | 63 | 0.0 | 1.0 | 0.05 | 0.06 | 0.06 | 89 | 995.0 | |
| 20260506150016 | 63 | 113 | 2.0 | 11.0 | 0.05 | 0.06 | 0.06 | 90 | 994.6 |
| 20260506145016 | 63 | 90 | 1.0 | 8.0 | 0.05 | 0.06 | 0.06 | 90 | 994.7 |
| 20260506144015 | 63 | 0.0 | 0.0 | 0.05 | 0.06 | 0.05 | 89 | 994.6 | |
| 20260506143016 | 63 | 0.0 | 0.0 | 0.03 | 0.04 | 0.03 | 87 | 994.7 | |
| 20260506142016 | 64 | 0.0 | 1.0 | 0.02 | 0.03 | 0.02 | 87 | 995.0 | |
| 20260506141016 | 64 | 0.0 | 0.0 | 0.01 | 0.02 | 0.01 | 86 | 995.0 | |
| 20260506140015 | 64 | 0.0 | 0.0 | 0.01 | 0.02 | 0.01 | 85 | 994.9 | |
| 20260506135015 | 64 | 0.0 | 0.0 | 0.01 | 0.02 | 0.01 | 85 | 994.7 | |
| 20260506134015 | 64 | 0.0 | 0.0 | 0.00 | 0.01 | 0.00 | 85 | 994.9 | |
| 20260506133015 | 64 | 90 | 1.0 | 5.0 | 0.00 | 0.01 | 0.00 | 83 | 995.1 |
| 20260506132015 | 65 | 0.0 | 0.0 | 0.00 | 0.01 | 0.00 | 82 | 995.1 | |
| 20260506131015 | 65 | 0.0 | 0.0 | 0.00 | 0.01 | 0.00 | 82 | 995.2 | |
| 20260506130035 | 65 | 0.0 | 1.0 | 0.00 | 0.01 | 0.00 | 80 | 995.2 | |
| 20260506125016 | 66 | 90 | 2.0 | 8.0 | 0.00 | 0.01 | 0.00 | 78 | 995.4 |
| 20260506124035 | 66 | 113 | 4.0 | 14.0 | 0.00 | 0.01 | 0.00 | 75 | 995.1 |
| 20260506123015 | 66 | 90 | 1.0 | 10.0 | 0.00 | 0.01 | 0.00 | 74 | 995.1 |
| 20260506122035 | 67 | 90 | 2.0 | 9.0 | 0.00 | 0.01 | 0.00 | 74 | 994.9 |
| 20260506121015 | 67 | 68 | 3.0 | 12.0 | 0.00 | 0.01 | 0.00 | 73 | 994.7 |
| 20260506120015 | 67 | 90 | 3.0 | 11.0 | 0.00 | 0.01 | 0.00 | 73 | 995.0 |
| 20260506115035 | 67 | 90 | 4.0 | 10.0 | 0.00 | 0.01 | 0.00 | 72 | 995.0 |
| 20260506114015 | 67 | 90 | 5.0 | 14.0 | 0.00 | 0.01 | 0.00 | 72 | 994.8 |
| 20260506113015 | 66 | 90 | 1.0 | 8.0 | 0.00 | 0.01 | 0.00 | 73 | 994.9 |
| 20260506112015 | 66 | 113 | 3.0 | 14.0 | 0.00 | 0.01 | 0.00 | 73 | 994.9 |
| 20260506111017 | 66 | 135 | 3.0 | 11.0 | 0.00 | 0.01 | 0.00 | 73 | 994.9 |
| 20260506110017 | 66 | 45 | 3.0 | 13.0 | 0.00 | 0.01 | 0.00 | 73 | 994.7 |
| 20260506105017 | 66 | 90 | 3.0 | 10.0 | 0.00 | 0.01 | 0.00 | 73 | 994.4 |
| 20260506104017 | 66 | 90 | 3.0 | 11.0 | 0.00 | 0.01 | 0.00 | 73 | 994.4 |
| 20260506103017 | 66 | 113 | 2.0 | 8.0 | 0.00 | 0.01 | 0.00 | 73 | 994.3 |
| 20260506102017 | 66 | 90 | 3.0 | 7.0 | 0.00 | 0.01 | 0.00 | 73 | 994.2 |
| 20260506101017 | 66 | 90 | 3.0 | 11.0 | 0.00 | 0.01 | 0.00 | 73 | 994.3 |
| 20260506100017 | 66 | 90 | 2.0 | 8.0 | 0.00 | 0.01 | 0.00 | 73 | 994.4 |
| 20260506095017 | 66 | 0.0 | 0.0 | 0.00 | 0.01 | 0.00 | 72 | 994.6 | |
| 20260506094037 | 66 | 113 | 3.0 | 11.0 | 0.00 | 0.01 | 0.00 | 72 | 994.5 |
| 20260506093017 | 66 | 90 | 2.0 | 9.0 | 0.00 | 0.01 | 0.00 | 71 | 994.3 |
| 20260506092017 | 66 | 90 | 2.0 | 6.0 | 0.00 | 0.01 | 0.00 | 70 | 994.5 |
| 20260506091017 | 67 | 90 | 3.0 | 9.0 | 0.00 | 0.01 | 0.00 | 70 | 994.4 |
| 20260506090017 | 67 | 90 | 3.0 | 8.0 | 0.00 | 0.01 | 0.00 | 69 | 994.5 |
| 20260506085037 | 67 | 68 | 2.0 | 6.0 | 0.00 | 0.01 | 0.00 | 68 | 994.6 |
| 20260506084017 | 67 | 90 | 3.0 | 9.0 | 0.00 | 0.01 | 0.00 | 67 | 994.7 |
| 20260506083017 | 67 | 113 | 4.0 | 11.0 | 0.00 | 0.01 | 0.00 | 67 | 994.6 |
| 20260506082017 | 67 | 0.0 | 0.0 | 0.00 | 0.02 | 0.00 | 66 | 994.7 | |
| 20260506081017 | 67 | 90 | 3.0 | 8.0 | 0.00 | 0.02 | 0.00 | 65 | 994.7 |
| 20260506073017 | 68 | 113 | 4.0 | 11.0 | 0.00 | 0.02 | 0.00 | 62 | 994.8 |
| 20260506072017 | 68 | 68 | 3.0 | 9.0 | 0.00 | 0.02 | 0.00 | 62 | 994.8 |
| 20260506071017 | 68 | 90 | 3.0 | 10.0 | 0.00 | 0.02 | 0.00 | 61 | 994.9 |
| 20260506062016 | 68 | 90 | 4.0 | 11.0 | 0.00 | 0.02 | 0.00 | 60 | 995.1 |
| 20260506061017 | 68 | 90 | 2.0 | 9.0 | 0.00 | 0.02 | 0.00 | 59 | 995.2 |
| 20260506051016 | 69 | 113 | 3.0 | 11.0 | 0.00 | 0.02 | 0.00 | 57 | 995.6 |
| 20260506045017 | 69 | 90 | 3.0 | 9.0 | 0.00 | 0.02 | 0.00 | 57 | 995.7 |
| 20260506044017 | 69 | 90 | 1.0 | 7.0 | 0.00 | 0.02 | 0.00 | 56 | 995.8 |
| 20260506043037 | 69 | 90 | 3.0 | 9.0 | 0.00 | 0.02 | 0.00 | 56 | 995.7 |
| 20260506042016 | 69 | 45 | 1.0 | 6.0 | 0.00 | 0.02 | 0.00 | 55 | 995.9 |
| 20260506041016 | 70 | 90 | 3.0 | 9.0 | 0.00 | 0.02 | 0.00 | 55 | 995.7 |
| 20260506040056 | 70 | 90 | 2.0 | 9.0 | 0.00 | 0.02 | 0.02 | 54 | 995.7 |
| 20260506035016 | 70 | 90 | 3.0 | 9.0 | 0.00 | 0.02 | 0.02 | 53 | 995.7 |
| 20260506034016 | 70 | 90 | 1.0 | 6.0 | 0.00 | 0.02 | 0.02 | 53 | 995.7 |
| 20260506033036 | 71 | 90 | 2.0 | 12.0 | 0.00 | 0.02 | 0.02 | 52 | 995.7 |
| 20260506032036 | 71 | 0.0 | 3.0 | 0.00 | 0.02 | 0.02 | 51 | 995.6 | |
| 20260506031016 | 71 | 90 | 4.0 | 10.0 | 0.00 | 0.02 | 0.02 | 50 | 995.6 |
| 20260506030015 | 72 | 90 | 2.0 | 9.0 | 0.00 | 0.02 | 0.02 | 50 | 995.5 |
| 20260506025016 | 72 | 90 | 5.0 | 11.0 | 0.00 | 0.02 | 0.02 | 49 | 995.5 |
| 20260506024015 | 72 | 113 | 5.0 | 13.0 | 0.00 | 0.02 | 0.02 | 48 | 995.6 |
| 20260506023016 | 73 | 90 | 4.0 | 11.0 | 0.00 | 0.02 | 0.02 | 47 | 995.6 |
| 20260506022016 | 73 | 90 | 4.0 | 9.0 | 0.00 | 0.02 | 0.02 | 47 | 995.7 |
| 20260506021016 | 73 | 68 | 2.0 | 7.0 | 0.00 | 0.02 | 0.02 | 46 | 995.6 |
| 20260506020035 | 74 | 90 | 1.0 | 7.0 | 0.00 | 0.02 | 0.02 | 45 | 995.6 |
| 20260506015015 | 74 | 90 | 3.0 | 11.0 | 0.00 | 0.02 | 0.02 | 44 | 995.5 |
| 20260506014015 | 75 | 90 | 4.0 | 10.0 | 0.00 | 0.02 | 0.02 | 43 | 995.4 |
| 20260506013016 | 75 | 90 | 3.0 | 9.0 | 0.00 | 0.02 | 0.02 | 42 | 995.3 |
| 20260506012015 | 75 | 90 | 4.0 | 12.0 | 0.00 | 0.02 | 0.02 | 42 | 995.2 |
| 20260506011035 | 75 | 90 | 5.0 | 12.0 | 0.00 | 0.02 | 0.02 | 41 | 995.0 |
| 20260506010036 | 75 | 90 | 4.0 | 11.0 | 0.00 | 0.02 | 0.02 | 41 | 994.8 |
| 20260506005015 | 76 | 90 | 2.0 | 8.0 | 0.00 | 0.02 | 0.02 | 41 | 994.6 |
| 20260506004015 | 76 | 113 | 3.0 | 11.0 | 0.00 | 0.02 | 0.02 | 41 | 994.7 |
| 20260506003015 | 76 | 90 | 3.0 | 11.0 | 0.00 | 0.02 | 0.02 | 41 | 994.4 |
| 20260506002015 | 76 | 68 | 3.0 | 9.0 | 0.00 | 0.02 | 0.02 | 41 | 994.4 |
| 20260506001035 | 77 | 68 | 2.0 | 8.0 | 0.00 | 0.02 | 0.02 | 41 | 994.2 |
| 20260506000017 | 77 | 90 | 4.0 | 10.0 | 0.00 | 0.02 | 0.02 | 40 | 994.2 |
| 20260505235017 | 77 | 90 | 4.0 | 9.0 | 0.00 | 0.02 | 0.02 | 39 | 994.2 |
| 20260505234017 | 78 | 90 | 4.0 | 11.0 | 0.00 | 0.02 | 0.02 | 39 | 994.0 |
| 20260505233017 | 78 | 90 | 2.0 | 8.0 | 0.00 | 0.02 | 0.02 | 39 | 994.0 |
| 20260505232017 | 78 | 90 | 4.0 | 15.0 | 0.00 | 0.02 | 0.02 | 38 | 993.9 |
| 20260505231017 | 79 | 113 | 5.0 | 11.0 | 0.00 | 0.02 | 0.02 | 37 | 993.8 |
| 20260505230017 | 79 | 90 | 5.0 | 17.0 | 0.00 | 0.02 | 0.02 | 37 | 993.8 |
| 20260505225017 | 80 | 113 | 3.0 | 10.0 | 0.00 | 0.02 | 0.02 | 37 | 993.7 |
| 20260505224017 | 81 | 113 | 4.0 | 17.0 | 0.00 | 0.02 | 0.02 | 36 | 993.8 |
| 20260505223017 | 81 | 113 | 4.0 | 18.0 | 0.00 | 0.02 | 0.02 | 35 | 993.7 |
| 20260505222017 | 82 | 68 | 5.0 | 14.0 | 0.00 | 0.02 | 0.02 | 34 | 993.6 |
| 20260505221017 | 82 | 90 | 2.0 | 10.0 | 0.00 | 0.02 | 0.02 | 35 | 993.5 |
| 20260505220017 | 82 | 90 | 6.0 | 13.0 | 0.00 | 0.02 | 0.02 | 33 | 993.4 |
| 20260505215017 | 82 | 90 | 4.0 | 13.0 | 0.00 | 0.02 | 0.02 | 34 | 993.6 |
| 20260505214017 | 82 | 113 | 6.0 | 18.0 | 0.00 | 0.02 | 0.02 | 34 | 993.6 |
| 20260505213017 | 82 | 90 | 6.0 | 14.0 | 0.00 | 0.02 | 0.02 | 36 | 993.6 |
| 20260505212037 | 82 | 90 | 3.0 | 8.0 | 0.00 | 0.02 | 0.02 | 36 | 993.5 |
| 20260505211017 | 83 | 68 | 2.0 | 14.0 | 0.00 | 0.02 | 0.02 | 34 | 993.6 |
| 20260505210037 | 83 | 90 | 3.0 | 11.0 | 0.00 | 0.02 | 0.02 | 34 | 993.5 |
| 20260505205017 | 83 | 113 | 7.0 | 24.0 | 0.00 | 0.02 | 0.02 | 32 | 993.6 |
| 20260505204037 | 83 | 113 | 4.0 | 12.0 | 0.00 | 0.02 | 0.02 | 35 | 993.6 |
| 20260505203017 | 82 | 90 | 8.0 | 20.0 | 0.00 | 0.02 | 0.02 | 34 | 993.4 |
| 20260505202017 | 83 | 68 | 7.0 | 19.0 | 0.00 | 0.02 | 0.02 | 34 | 993.5 |
| 20260505201057 | 83 | 90 | 6.0 | 19.0 | 0.00 | 0.02 | 0.02 | 33 | 993.4 |
| 20260505200017 | 82 | 90 | 6.0 | 15.0 | 0.00 | 0.02 | 0.02 | 35 | 993.6 |
| 20260505195017 | 84 | 68 | 5.0 | 16.0 | 0.00 | 0.02 | 0.02 | 35 | 993.7 |
| 20260505194017 | 84 | 113 | 3.0 | 14.0 | 0.00 | 0.02 | 0.02 | 36 | 993.8 |
| 20260505193017 | 84 | 113 | 3.0 | 14.0 | 0.00 | 0.02 | 0.02 | 34 | 993.8 |
| 20260505192017 | 84 | 90 | 3.0 | 11.0 | 0.00 | 0.02 | 0.02 | 36 | 993.9 |
| 20260505191016 | 84 | 45 | 3.0 | 15.0 | 0.00 | 0.02 | 0.02 | 36 | 993.8 |
| 20260505190037 | 84 | 113 | 5.0 | 15.0 | 0.00 | 0.02 | 0.02 | 36 | 994.1 |
| 20260505185017 | 84 | 113 | 3.0 | 14.0 | 0.00 | 0.02 | 0.02 | 33 | 994.2 |
| 20260505184017 | 84 | 158 | 2.0 | 9.0 | 0.00 | 0.02 | 0.02 | 36 | 994.2 |